sensor_id;sensor_type;location;lat;lon;timestamp;P1;durP1;ratioP1;P2;durP2;ratioP2
4519;SDS011;2272;49.226;8.108;2023-04-01T00:00:32;3.70;;;1.30;;
4519;SDS011;2272;49.226;8.108;2023-04-01T00:02:59;5.73;;;2.00;;
4519;SDS011;2272;49.226;8.108;2023-04-01T00:05:26;6.70;;;1.60;;
4519;SDS011;2272;49.226;8.108;2023-04-01T00:07:53;2.40;;;0.93;;
4519;SDS011;2272;49.226;8.108;2023-04-01T00:10:20;5.53;;;2.00;;
4519;SDS011;2272;49.226;8.108;2023-04-01T00:12:46;2.23;;;1.27;;
4519;SDS011;2272;49.226;8.108;2023-04-01T00:15:15;4.43;;;1.33;;
4519;SDS011;2272;49.226;8.108;2023-04-01T00:17:41;1.77;;;1.00;;
4519;SDS011;2272;49.226;8.108;2023-04-01T00:20:08;4.40;;;1.23;;
4519;SDS011;2272;49.226;8.108;2023-04-01T00:22:36;5.10;;;1.43;;
4519;SDS011;2272;49.226;8.108;2023-04-01T00:25:03;3.80;;;1.00;;
4519;SDS011;2272;49.226;8.108;2023-04-01T00:27:31;2.60;;;1.20;;
4519;SDS011;2272;49.226;8.108;2023-04-01T00:30:00;1.43;;;0.90;;
4519;SDS011;2272;49.226;8.108;2023-04-01T00:32:31;8.73;;;2.33;;
4519;SDS011;2272;49.226;8.108;2023-04-01T00:34:58;3.20;;;1.17;;
4519;SDS011;2272;49.226;8.108;2023-04-01T00:37:25;2.83;;;0.97;;
4519;SDS011;2272;49.226;8.108;2023-04-01T00:39:55;11.83;;;1.47;;
4519;SDS011;2272;49.226;8.108;2023-04-01T00:42:23;6.20;;;1.30;;
4519;SDS011;2272;49.226;8.108;2023-04-01T00:44:50;4.07;;;1.10;;
4519;SDS011;2272;49.226;8.108;2023-04-01T00:47:19;2.13;;;1.10;;
4519;SDS011;2272;49.226;8.108;2023-04-01T00:49:50;4.47;;;1.30;;
4519;SDS011;2272;49.226;8.108;2023-04-01T00:52:18;3.23;;;1.40;;
4519;SDS011;2272;49.226;8.108;2023-04-01T00:54:49;3.77;;;1.33;;
4519;SDS011;2272;49.226;8.108;2023-04-01T00:57:21;3.63;;;1.00;;
4519;SDS011;2272;49.226;8.108;2023-04-01T00:59:54;5.37;;;0.90;;
4519;SDS011;2272;49.226;8.108;2023-04-01T01:02:21;6.13;;;1.30;;
4519;SDS011;2272;49.226;8.108;2023-04-01T01:04:50;8.97;;;1.60;;
4519;SDS011;2272;49.226;8.108;2023-04-01T01:07:20;3.93;;;1.00;;
4519;SDS011;2272;49.226;8.108;2023-04-01T01:09:56;2.80;;;1.40;;
4519;SDS011;2272;49.226;8.108;2023-04-01T01:12:30;9.30;;;1.50;;
4519;SDS011;2272;49.226;8.108;2023-04-01T01:15:02;5.17;;;1.37;;
4519;SDS011;2272;49.226;8.108;2023-04-01T01:17:38;2.63;;;1.27;;
4519;SDS011;2272;49.226;8.108;2023-04-01T01:20:20;8.80;;;2.07;;
4519;SDS011;2272;49.226;8.108;2023-04-01T01:23:05;6.00;;;1.10;;
4519;SDS011;2272;49.226;8.108;2023-04-01T01:25:55;5.23;;;1.70;;
4519;SDS011;2272;49.226;8.108;2023-04-01T01:28:36;7.97;;;1.87;;
4519;SDS011;2272;49.226;8.108;2023-04-01T01:31:16;9.00;;;1.67;;
4519;SDS011;2272;49.226;8.108;2023-04-01T01:33:50;8.60;;;2.53;;
4519;SDS011;2272;49.226;8.108;2023-04-01T01:36:30;5.17;;;1.30;;
4519;SDS011;2272;49.226;8.108;2023-04-01T01:39:00;4.43;;;1.00;;
4519;SDS011;2272;49.226;8.108;2023-04-01T01:41:27;7.20;;;1.27;;
4519;SDS011;2272;49.226;8.108;2023-04-01T01:43:56;1.87;;;0.90;;
4519;SDS011;2272;49.226;8.108;2023-04-01T01:46:26;4.10;;;1.43;;
4519;SDS011;2272;49.226;8.108;2023-04-01T01:48:54;2.30;;;1.30;;
4519;SDS011;2272;49.226;8.108;2023-04-01T01:51:23;4.27;;;1.30;;
4519;SDS011;2272;49.226;8.108;2023-04-01T01:53:54;11.10;;;1.30;;
4519;SDS011;2272;49.226;8.108;2023-04-01T01:56:22;4.80;;;1.30;;
4519;SDS011;2272;49.226;8.108;2023-04-01T01:58:52;6.63;;;1.00;;
4519;SDS011;2272;49.226;8.108;2023-04-01T02:01:23;7.23;;;1.80;;
4519;SDS011;2272;49.226;8.108;2023-04-01T02:03:52;3.57;;;0.70;;
4519;SDS011;2272;49.226;8.108;2023-04-01T02:06:21;6.63;;;1.20;;
4519;SDS011;2272;49.226;8.108;2023-04-01T02:08:50;6.60;;;1.80;;
4519;SDS011;2272;49.226;8.108;2023-04-01T02:11:23;12.70;;;1.90;;
4519;SDS011;2272;49.226;8.108;2023-04-01T02:13:53;2.27;;;1.10;;
4519;SDS011;2272;49.226;8.108;2023-04-01T02:16:22;4.63;;;1.00;;
4519;SDS011;2272;49.226;8.108;2023-04-01T02:18:54;5.93;;;1.20;;
4519;SDS011;2272;49.226;8.108;2023-04-01T02:21:24;7.70;;;1.40;;
4519;SDS011;2272;49.226;8.108;2023-04-01T02:23:53;4.53;;;1.23;;
4519;SDS011;2272;49.226;8.108;2023-04-01T02:26:24;4.20;;;1.00;;
4519;SDS011;2272;49.226;8.108;2023-04-01T02:28:51;4.83;;;1.20;;
4519;SDS011;2272;49.226;8.108;2023-04-01T02:31:19;2.37;;;1.00;;
4519;SDS011;2272;49.226;8.108;2023-04-01T02:33:51;2.23;;;1.20;;
4519;SDS011;2272;49.226;8.108;2023-04-01T02:36:18;4.17;;;1.00;;
4519;SDS011;2272;49.226;8.108;2023-04-01T02:38:45;3.07;;;0.97;;
4519;SDS011;2272;49.226;8.108;2023-04-01T02:41:14;5.50;;;1.90;;
4519;SDS011;2272;49.226;8.108;2023-04-01T02:43:42;2.50;;;0.80;;
4519;SDS011;2272;49.226;8.108;2023-04-01T02:46:09;3.60;;;1.23;;
4519;SDS011;2272;49.226;8.108;2023-04-01T02:48:36;2.40;;;1.17;;
4519;SDS011;2272;49.226;8.108;2023-04-01T02:51:03;5.50;;;1.80;;
4519;SDS011;2272;49.226;8.108;2023-04-01T02:53:29;1.60;;;0.80;;
4519;SDS011;2272;49.226;8.108;2023-04-01T02:55:56;2.10;;;1.17;;
4519;SDS011;2272;49.226;8.108;2023-04-01T02:58:23;1.13;;;0.77;;
4519;SDS011;2272;49.226;8.108;2023-04-01T03:00:51;7.60;;;1.20;;
4519;SDS011;2272;49.226;8.108;2023-04-01T03:03:18;3.03;;;1.37;;
4519;SDS011;2272;49.226;8.108;2023-04-01T03:05:44;4.50;;;1.30;;
4519;SDS011;2272;49.226;8.108;2023-04-01T03:08:11;4.10;;;0.97;;
4519;SDS011;2272;49.226;8.108;2023-04-01T03:10:38;3.13;;;1.23;;
4519;SDS011;2272;49.226;8.108;2023-04-01T03:13:04;3.07;;;1.30;;
4519;SDS011;2272;49.226;8.108;2023-04-01T03:15:31;7.73;;;1.67;;
4519;SDS011;2272;49.226;8.108;2023-04-01T03:17:59;1.83;;;1.03;;
4519;SDS011;2272;49.226;8.108;2023-04-01T03:20:26;1.60;;;0.70;;
4519;SDS011;2272;49.226;8.108;2023-04-01T03:22:53;2.10;;;0.97;;
4519;SDS011;2272;49.226;8.108;2023-04-01T03:25:20;4.47;;;1.07;;
4519;SDS011;2272;49.226;8.108;2023-04-01T03:27:46;3.43;;;0.80;;
4519;SDS011;2272;49.226;8.108;2023-04-01T03:30:13;4.40;;;1.10;;
4519;SDS011;2272;49.226;8.108;2023-04-01T03:32:40;4.00;;;1.63;;
4519;SDS011;2272;49.226;8.108;2023-04-01T03:35:08;4.40;;;1.10;;
4519;SDS011;2272;49.226;8.108;2023-04-01T03:37:35;4.10;;;1.33;;
4519;SDS011;2272;49.226;8.108;2023-04-01T03:40:02;1.73;;;1.17;;
4519;SDS011;2272;49.226;8.108;2023-04-01T03:42:30;3.47;;;1.10;;
4519;SDS011;2272;49.226;8.108;2023-04-01T03:44:57;5.23;;;1.10;;
4519;SDS011;2272;49.226;8.108;2023-04-01T03:47:24;3.73;;;0.90;;
4519;SDS011;2272;49.226;8.108;2023-04-01T03:49:50;2.03;;;0.93;;
4519;SDS011;2272;49.226;8.108;2023-04-01T03:52:18;2.77;;;0.80;;
4519;SDS011;2272;49.226;8.108;2023-04-01T03:54:45;2.23;;;0.70;;
4519;SDS011;2272;49.226;8.108;2023-04-01T03:57:12;3.03;;;0.90;;
4519;SDS011;2272;49.226;8.108;2023-04-01T03:59:39;3.87;;;1.30;;
4519;SDS011;2272;49.226;8.108;2023-04-01T04:02:05;1.77;;;1.20;;
4519;SDS011;2272;49.226;8.108;2023-04-01T04:04:32;2.83;;;1.17;;
4519;SDS011;2272;49.226;8.108;2023-04-01T04:06:59;3.27;;;1.40;;
4519;SDS011;2272;49.226;8.108;2023-04-01T04:09:29;6.97;;;1.30;;
4519;SDS011;2272;49.226;8.108;2023-04-01T04:11:56;3.47;;;0.70;;
4519;SDS011;2272;49.226;8.108;2023-04-01T04:14:22;2.00;;;0.63;;
4519;SDS011;2272;49.226;8.108;2023-04-01T04:16:49;2.97;;;1.53;;
4519;SDS011;2272;49.226;8.108;2023-04-01T04:19:16;4.67;;;1.33;;
4519;SDS011;2272;49.226;8.108;2023-04-01T04:21:43;1.63;;;0.80;;
4519;SDS011;2272;49.226;8.108;2023-04-01T04:24:09;1.00;;;0.70;;
4519;SDS011;2272;49.226;8.108;2023-04-01T04:26:37;2.10;;;0.83;;
4519;SDS011;2272;49.226;8.108;2023-04-01T04:29:04;3.73;;;1.47;;
4519;SDS011;2272;49.226;8.108;2023-04-01T04:31:31;4.20;;;1.07;;
4519;SDS011;2272;49.226;8.108;2023-04-01T04:33:58;3.33;;;1.83;;
4519;SDS011;2272;49.226;8.108;2023-04-01T04:36:26;3.97;;;1.30;;
4519;SDS011;2272;49.226;8.108;2023-04-01T04:38:53;5.40;;;1.17;;
4519;SDS011;2272;49.226;8.108;2023-04-01T04:41:20;2.00;;;1.07;;
4519;SDS011;2272;49.226;8.108;2023-04-01T04:43:50;7.50;;;1.63;;
4519;SDS011;2272;49.226;8.108;2023-04-01T04:46:18;3.37;;;0.90;;
4519;SDS011;2272;49.226;8.108;2023-04-01T04:48:45;4.00;;;1.60;;
4519;SDS011;2272;49.226;8.108;2023-04-01T04:51:13;3.53;;;1.23;;
4519;SDS011;2272;49.226;8.108;2023-04-01T04:53:41;5.77;;;1.60;;
4519;SDS011;2272;49.226;8.108;2023-04-01T04:56:08;4.13;;;1.40;;
4519;SDS011;2272;49.226;8.108;2023-04-01T04:58:35;4.20;;;1.33;;
4519;SDS011;2272;49.226;8.108;2023-04-01T05:01:06;6.77;;;1.10;;
4519;SDS011;2272;49.226;8.108;2023-04-01T05:03:35;5.63;;;1.73;;
4519;SDS011;2272;49.226;8.108;2023-04-01T05:06:02;5.30;;;1.83;;
4519;SDS011;2272;49.226;8.108;2023-04-01T05:08:29;7.07;;;1.10;;
4519;SDS011;2272;49.226;8.108;2023-04-01T05:10:56;2.17;;;1.27;;
4519;SDS011;2272;49.226;8.108;2023-04-01T05:13:22;3.17;;;1.23;;
4519;SDS011;2272;49.226;8.108;2023-04-01T05:15:49;2.50;;;1.00;;
4519;SDS011;2272;49.226;8.108;2023-04-01T05:18:17;1.40;;;0.90;;
4519;SDS011;2272;49.226;8.108;2023-04-01T05:20:47;7.10;;;1.30;;
4519;SDS011;2272;49.226;8.108;2023-04-01T05:23:15;2.20;;;0.80;;
4519;SDS011;2272;49.226;8.108;2023-04-01T05:25:42;2.33;;;1.40;;
4519;SDS011;2272;49.226;8.108;2023-04-01T05:28:10;2.60;;;1.43;;
4519;SDS011;2272;49.226;8.108;2023-04-01T05:30:39;4.67;;;1.17;;
4519;SDS011;2272;49.226;8.108;2023-04-01T05:33:06;4.13;;;1.43;;
4519;SDS011;2272;49.226;8.108;2023-04-01T05:35:35;1.63;;;0.97;;
4519;SDS011;2272;49.226;8.108;2023-04-01T05:38:02;4.67;;;1.40;;
4519;SDS011;2272;49.226;8.108;2023-04-01T05:40:29;4.13;;;1.20;;
4519;SDS011;2272;49.226;8.108;2023-04-01T05:42:56;4.10;;;1.17;;
4519;SDS011;2272;49.226;8.108;2023-04-01T05:45:24;5.40;;;0.83;;
4519;SDS011;2272;49.226;8.108;2023-04-01T05:47:50;1.53;;;0.70;;
4519;SDS011;2272;49.226;8.108;2023-04-01T05:50:17;2.40;;;1.03;;
4519;SDS011;2272;49.226;8.108;2023-04-01T05:52:45;5.90;;;1.47;;
4519;SDS011;2272;49.226;8.108;2023-04-01T05:55:12;2.03;;;0.70;;
4519;SDS011;2272;49.226;8.108;2023-04-01T05:57:39;1.93;;;0.80;;
4519;SDS011;2272;49.226;8.108;2023-04-01T06:00:06;3.33;;;0.80;;
4519;SDS011;2272;49.226;8.108;2023-04-01T06:02:34;1.73;;;1.20;;
4519;SDS011;2272;49.226;8.108;2023-04-01T06:05:03;7.50;;;2.07;;
4519;SDS011;2272;49.226;8.108;2023-04-01T06:07:39;3.23;;;1.57;;
4519;SDS011;2272;49.226;8.108;2023-04-01T06:10:11;1.77;;;1.30;;
4519;SDS011;2272;49.226;8.108;2023-04-01T06:12:44;4.30;;;2.60;;
4519;SDS011;2272;49.226;8.108;2023-04-01T06:15:20;4.57;;;2.10;;
4519;SDS011;2272;49.226;8.108;2023-04-01T06:18:04;5.60;;;1.40;;
4519;SDS011;2272;49.226;8.108;2023-04-01T06:21:01;1.67;;;1.53;;
4519;SDS011;2272;49.226;8.108;2023-04-01T06:23:38;4.93;;;1.37;;
4519;SDS011;2272;49.226;8.108;2023-04-01T06:26:21;3.03;;;1.90;;
4519;SDS011;2272;49.226;8.108;2023-04-01T06:32:09;1.53;;;1.00;;
4519;SDS011;2272;49.226;8.108;2023-04-01T06:34:51;1.57;;;0.70;;
4519;SDS011;2272;49.226;8.108;2023-04-01T06:37:40;1.13;;;0.90;;
4519;SDS011;2272;49.226;8.108;2023-04-01T06:40:24;10.40;;;1.97;;
4519;SDS011;2272;49.226;8.108;2023-04-01T06:43:13;5.57;;;0.80;;
4519;SDS011;2272;49.226;8.108;2023-04-01T06:45:45;2.63;;;1.00;;
4519;SDS011;2272;49.226;8.108;2023-04-01T06:48:24;0.90;;;0.90;;
4519;SDS011;2272;49.226;8.108;2023-04-01T06:51:07;1.60;;;1.50;;
4519;SDS011;2272;49.226;8.108;2023-04-01T06:53:45;2.20;;;0.90;;
4519;SDS011;2272;49.226;8.108;2023-04-01T06:56:20;1.80;;;0.93;;
4519;SDS011;2272;49.226;8.108;2023-04-01T06:58:53;1.07;;;0.83;;
4519;SDS011;2272;49.226;8.108;2023-04-01T07:01:24;1.47;;;1.10;;
4519;SDS011;2272;49.226;8.108;2023-04-01T07:03:55;3.83;;;0.70;;
4519;SDS011;2272;49.226;8.108;2023-04-01T07:06:26;1.00;;;0.67;;
4519;SDS011;2272;49.226;8.108;2023-04-01T07:08:57;1.23;;;0.60;;
4519;SDS011;2272;49.226;8.108;2023-04-01T07:11:29;0.97;;;0.70;;
4519;SDS011;2272;49.226;8.108;2023-04-01T07:14:00;0.77;;;0.57;;
4519;SDS011;2272;49.226;8.108;2023-04-01T07:16:29;0.60;;;0.60;;
4519;SDS011;2272;49.226;8.108;2023-04-01T07:19:00;1.20;;;1.10;;
4519;SDS011;2272;49.226;8.108;2023-04-01T07:21:32;0.73;;;0.70;;
4519;SDS011;2272;49.226;8.108;2023-04-01T07:24:05;0.90;;;0.90;;
4519;SDS011;2272;49.226;8.108;2023-04-01T07:26:42;4.53;;;0.83;;
4519;SDS011;2272;49.226;8.108;2023-04-01T07:29:14;1.47;;;0.73;;
4519;SDS011;2272;49.226;8.108;2023-04-01T07:34:35;2.40;;;0.90;;
4519;SDS011;2272;49.226;8.108;2023-04-01T07:37:10;6.30;;;0.80;;
4519;SDS011;2272;49.226;8.108;2023-04-01T07:39:42;1.40;;;0.70;;
4519;SDS011;2272;49.226;8.108;2023-04-01T07:42:16;1.73;;;0.60;;
4519;SDS011;2272;49.226;8.108;2023-04-01T07:44:57;1.60;;;0.80;;
4519;SDS011;2272;49.226;8.108;2023-04-01T07:47:32;0.77;;;0.70;;
4519;SDS011;2272;49.226;8.108;2023-04-01T07:50:12;2.73;;;0.53;;
4519;SDS011;2272;49.226;8.108;2023-04-01T07:52:48;1.23;;;0.93;;
4519;SDS011;2272;49.226;8.108;2023-04-01T07:55:26;1.67;;;0.80;;
4519;SDS011;2272;49.226;8.108;2023-04-01T07:58:00;5.63;;;1.20;;
4519;SDS011;2272;49.226;8.108;2023-04-01T08:00:36;1.83;;;0.60;;
4519;SDS011;2272;49.226;8.108;2023-04-01T08:03:13;3.10;;;1.20;;
4519;SDS011;2272;49.226;8.108;2023-04-01T08:06:06;1.00;;;0.83;;
4519;SDS011;2272;49.226;8.108;2023-04-01T08:08:41;0.50;;;0.50;;
4519;SDS011;2272;49.226;8.108;2023-04-01T08:11:21;2.70;;;0.60;;
4519;SDS011;2272;49.226;8.108;2023-04-01T08:14:00;0.77;;;0.70;;
4519;SDS011;2272;49.226;8.108;2023-04-01T08:16:34;0.83;;;0.80;;
4519;SDS011;2272;49.226;8.108;2023-04-01T08:19:09;1.47;;;0.60;;
4519;SDS011;2272;49.226;8.108;2023-04-01T08:21:46;2.70;;;0.70;;
4519;SDS011;2272;49.226;8.108;2023-04-01T08:24:17;1.83;;;1.07;;
4519;SDS011;2272;49.226;8.108;2023-04-01T08:26:51;3.03;;;0.80;;
4519;SDS011;2272;49.226;8.108;2023-04-01T08:29:21;2.83;;;1.07;;
4519;SDS011;2272;49.226;8.108;2023-04-01T08:31:56;1.30;;;1.30;;
4519;SDS011;2272;49.226;8.108;2023-04-01T08:34:31;1.50;;;1.40;;
4519;SDS011;2272;49.226;8.108;2023-04-01T08:37:01;1.50;;;1.40;;
4519;SDS011;2272;49.226;8.108;2023-04-01T08:39:31;1.37;;;0.80;;
4519;SDS011;2272;49.226;8.108;2023-04-01T08:45:03;0.87;;;0.70;;
4519;SDS011;2272;49.226;8.108;2023-04-01T08:47:48;0.67;;;0.67;;
4519;SDS011;2272;49.226;8.108;2023-04-01T08:50:26;3.17;;;1.20;;
4519;SDS011;2272;49.226;8.108;2023-04-01T08:53:11;3.73;;;1.17;;
4519;SDS011;2272;49.226;8.108;2023-04-01T08:55:51;1.13;;;0.87;;
4519;SDS011;2272;49.226;8.108;2023-04-01T08:58:35;1.07;;;0.70;;
4519;SDS011;2272;49.226;8.108;2023-04-01T09:01:19;1.33;;;1.23;;
4519;SDS011;2272;49.226;8.108;2023-04-01T09:04:03;1.17;;;0.80;;
4519;SDS011;2272;49.226;8.108;2023-04-01T09:06:46;0.80;;;0.80;;
4519;SDS011;2272;49.226;8.108;2023-04-01T09:09:37;1.80;;;1.70;;
4519;SDS011;2272;49.226;8.108;2023-04-01T09:12:31;1.80;;;1.70;;
4519;SDS011;2272;49.226;8.108;2023-04-01T09:15:20;1.87;;;1.77;;
4519;SDS011;2272;49.226;8.108;2023-04-01T09:18:32;1.80;;;1.70;;
4519;SDS011;2272;49.226;8.108;2023-04-01T09:21:34;0.70;;;0.70;;
4519;SDS011;2272;49.226;8.108;2023-04-01T09:27:08;4.13;;;3.10;;
4519;SDS011;2272;49.226;8.108;2023-04-01T09:29:49;2.30;;;2.20;;
4519;SDS011;2272;49.226;8.108;2023-04-01T09:32:42;0.60;;;0.60;;
4519;SDS011;2272;49.226;8.108;2023-04-01T09:35:22;0.60;;;0.60;;
4519;SDS011;2272;49.226;8.108;2023-04-01T09:37:53;0.60;;;0.60;;
4519;SDS011;2272;49.226;8.108;2023-04-01T09:40:31;1.40;;;0.93;;
4519;SDS011;2272;49.226;8.108;2023-04-01T09:46:06;2.20;;;0.80;;
4519;SDS011;2272;49.226;8.108;2023-04-01T09:49:00;3.43;;;0.80;;
4519;SDS011;2272;49.226;8.108;2023-04-01T09:51:55;1.13;;;0.83;;
4519;SDS011;2272;49.226;8.108;2023-04-01T09:54:40;1.87;;;0.60;;
4519;SDS011;2272;49.226;8.108;2023-04-01T10:00:39;1.77;;;0.60;;
4519;SDS011;2272;49.226;8.108;2023-04-01T10:09:33;0.83;;;0.60;;
4519;SDS011;2272;49.226;8.108;2023-04-01T10:12:42;2.20;;;0.70;;
4519;SDS011;2272;49.226;8.108;2023-04-01T10:15:29;0.90;;;0.60;;
4519;SDS011;2272;49.226;8.108;2023-04-01T10:18:26;0.50;;;0.50;;
4519;SDS011;2272;49.226;8.108;2023-04-01T10:21:24;0.90;;;0.90;;
4519;SDS011;2272;49.226;8.108;2023-04-01T10:24:43;0.80;;;0.80;;
4519;SDS011;2272;49.226;8.108;2023-04-01T10:30:38;0.60;;;0.60;;
4519;SDS011;2272;49.226;8.108;2023-04-01T10:33:38;0.80;;;0.80;;
4519;SDS011;2272;49.226;8.108;2023-04-01T10:36:31;1.13;;;0.90;;
4519;SDS011;2272;49.226;8.108;2023-04-01T10:51:25;0.50;;;0.50;;
4519;SDS011;2272;49.226;8.108;2023-04-01T10:57:11;7.10;;;6.40;;
4519;SDS011;2272;49.226;8.108;2023-04-01T11:00:08;13.17;;;9.27;;
4519;SDS011;2272;49.226;8.108;2023-04-01T11:02:56;20.27;;;13.90;;
4519;SDS011;2272;49.226;8.108;2023-04-01T11:05:59;6.80;;;5.17;;
4519;SDS011;2272;49.226;8.108;2023-04-01T11:08:54;3.60;;;3.30;;
4519;SDS011;2272;49.226;8.108;2023-04-01T11:11:47;1.10;;;1.00;;
4519;SDS011;2272;49.226;8.108;2023-04-01T11:14:50;0.73;;;0.73;;
4519;SDS011;2272;49.226;8.108;2023-04-01T11:20:42;1.13;;;0.60;;
4519;SDS011;2272;49.226;8.108;2023-04-01T11:23:33;0.57;;;0.50;;
4519;SDS011;2272;49.226;8.108;2023-04-01T11:26:09;0.60;;;0.60;;
4519;SDS011;2272;49.226;8.108;2023-04-01T11:31:55;0.97;;;0.97;;
4519;SDS011;2272;49.226;8.108;2023-04-01T11:34:42;1.10;;;0.60;;
4519;SDS011;2272;49.226;8.108;2023-04-01T11:37:27;1.83;;;0.67;;
4519;SDS011;2272;49.226;8.108;2023-04-01T11:40:05;0.67;;;0.67;;
4519;SDS011;2272;49.226;8.108;2023-04-01T11:42:41;0.60;;;0.50;;
4519;SDS011;2272;49.226;8.108;2023-04-01T11:45:20;0.50;;;0.50;;
4519;SDS011;2272;49.226;8.108;2023-04-01T11:48:03;0.87;;;0.60;;
4519;SDS011;2272;49.226;8.108;2023-04-01T11:50:49;0.50;;;0.50;;
4519;SDS011;2272;49.226;8.108;2023-04-01T11:53:23;1.27;;;1.17;;
4519;SDS011;2272;49.226;8.108;2023-04-01T11:56:09;0.63;;;0.60;;
4519;SDS011;2272;49.226;8.108;2023-04-01T11:59:09;0.60;;;0.60;;
4519;SDS011;2272;49.226;8.108;2023-04-01T12:02:05;0.80;;;0.60;;
4519;SDS011;2272;49.226;8.108;2023-04-01T12:04:46;1.27;;;0.80;;
4519;SDS011;2272;49.226;8.108;2023-04-01T12:07:45;0.60;;;0.60;;
4519;SDS011;2272;49.226;8.108;2023-04-01T12:10:21;0.83;;;0.83;;
4519;SDS011;2272;49.226;8.108;2023-04-01T12:12:59;0.70;;;0.60;;
4519;SDS011;2272;49.226;8.108;2023-04-01T12:15:48;0.50;;;0.50;;
4519;SDS011;2272;49.226;8.108;2023-04-01T12:18:25;1.63;;;0.50;;
4519;SDS011;2272;49.226;8.108;2023-04-01T12:21:00;3.27;;;0.60;;
4519;SDS011;2272;49.226;8.108;2023-04-01T12:23:39;1.80;;;0.50;;
4519;SDS011;2272;49.226;8.108;2023-04-01T12:29:33;0.80;;;0.80;;
4519;SDS011;2272;49.226;8.108;2023-04-01T12:32:24;3.03;;;0.60;;
4519;SDS011;2272;49.226;8.108;2023-04-01T12:35:01;0.70;;;0.70;;
4519;SDS011;2272;49.226;8.108;2023-04-01T12:37:41;0.50;;;0.50;;
4519;SDS011;2272;49.226;8.108;2023-04-01T12:43:22;0.50;;;0.50;;
4519;SDS011;2272;49.226;8.108;2023-04-01T12:46:23;0.60;;;0.50;;
4519;SDS011;2272;49.226;8.108;2023-04-01T12:49:02;0.60;;;0.60;;
4519;SDS011;2272;49.226;8.108;2023-04-01T12:51:57;1.43;;;0.70;;
4519;SDS011;2272;49.226;8.108;2023-04-01T12:57:33;0.70;;;0.57;;
4519;SDS011;2272;49.226;8.108;2023-04-01T13:00:31;0.60;;;0.60;;
4519;SDS011;2272;49.226;8.108;2023-04-01T13:03:24;1.00;;;0.70;;
4519;SDS011;2272;49.226;8.108;2023-04-01T13:06:19;3.33;;;0.70;;
4519;SDS011;2272;49.226;8.108;2023-04-01T13:08:52;0.60;;;0.60;;
4519;SDS011;2272;49.226;8.108;2023-04-01T13:11:30;2.93;;;1.00;;
4519;SDS011;2272;49.226;8.108;2023-04-01T13:14:15;4.60;;;0.70;;
4519;SDS011;2272;49.226;8.108;2023-04-01T13:16:58;0.50;;;0.50;;
4519;SDS011;2272;49.226;8.108;2023-04-01T13:19:38;0.70;;;0.70;;
4519;SDS011;2272;49.226;8.108;2023-04-01T13:22:12;0.87;;;0.60;;
4519;SDS011;2272;49.226;8.108;2023-04-01T13:24:47;0.60;;;0.60;;
4519;SDS011;2272;49.226;8.108;2023-04-01T13:27:23;1.63;;;0.77;;
4519;SDS011;2272;49.226;8.108;2023-04-01T13:29:59;1.20;;;0.80;;
4519;SDS011;2272;49.226;8.108;2023-04-01T13:32:37;0.90;;;0.90;;
4519;SDS011;2272;49.226;8.108;2023-04-01T13:35:20;0.77;;;0.77;;
4519;SDS011;2272;49.226;8.108;2023-04-01T13:37:54;0.70;;;0.70;;
4519;SDS011;2272;49.226;8.108;2023-04-01T13:40:33;0.90;;;0.70;;
4519;SDS011;2272;49.226;8.108;2023-04-01T13:43:08;2.20;;;1.20;;
4519;SDS011;2272;49.226;8.108;2023-04-01T13:45:42;1.10;;;0.97;;
4519;SDS011;2272;49.226;8.108;2023-04-01T13:48:29;0.50;;;0.50;;
4519;SDS011;2272;49.226;8.108;2023-04-01T13:54:33;1.77;;;0.90;;
4519;SDS011;2272;49.226;8.108;2023-04-01T13:57:16;1.37;;;1.00;;
4519;SDS011;2272;49.226;8.108;2023-04-01T13:59:59;1.07;;;1.07;;
4519;SDS011;2272;49.226;8.108;2023-04-01T14:05:44;0.70;;;0.70;;
4519;SDS011;2272;49.226;8.108;2023-04-01T14:08:29;4.60;;;1.10;;
4519;SDS011;2272;49.226;8.108;2023-04-01T14:11:19;0.80;;;0.80;;
4519;SDS011;2272;49.226;8.108;2023-04-01T14:13:56;1.17;;;1.10;;
4519;SDS011;2272;49.226;8.108;2023-04-01T14:22:56;1.23;;;1.23;;
4519;SDS011;2272;49.226;8.108;2023-04-01T14:28:54;1.47;;;1.47;;
4519;SDS011;2272;49.226;8.108;2023-04-01T14:31:34;1.20;;;1.10;;
4519;SDS011;2272;49.226;8.108;2023-04-01T14:34:16;3.40;;;3.30;;
4519;SDS011;2272;49.226;8.108;2023-04-01T14:36:53;1.60;;;1.50;;
4519;SDS011;2272;49.226;8.108;2023-04-01T14:39:34;2.57;;;2.47;;
4519;SDS011;2272;49.226;8.108;2023-04-01T14:42:15;1.03;;;1.03;;
4519;SDS011;2272;49.226;8.108;2023-04-01T14:45:04;1.27;;;1.17;;
4519;SDS011;2272;49.226;8.108;2023-04-01T14:47:47;0.60;;;0.60;;
4519;SDS011;2272;49.226;8.108;2023-04-01T14:50:19;0.97;;;0.70;;
4519;SDS011;2272;49.226;8.108;2023-04-01T14:52:51;0.87;;;0.70;;
4519;SDS011;2272;49.226;8.108;2023-04-01T14:55:33;1.23;;;0.73;;
4519;SDS011;2272;49.226;8.108;2023-04-01T14:58:11;0.93;;;0.73;;
4519;SDS011;2272;49.226;8.108;2023-04-01T15:00:49;5.30;;;1.13;;
4519;SDS011;2272;49.226;8.108;2023-04-01T15:03:22;1.60;;;0.60;;
4519;SDS011;2272;49.226;8.108;2023-04-01T15:06:02;0.60;;;0.53;;
4519;SDS011;2272;49.226;8.108;2023-04-01T15:08:57;0.73;;;0.73;;
4519;SDS011;2272;49.226;8.108;2023-04-01T15:11:36;2.03;;;1.10;;
4519;SDS011;2272;49.226;8.108;2023-04-01T15:14:19;1.00;;;0.87;;
4519;SDS011;2272;49.226;8.108;2023-04-01T15:17:16;1.60;;;1.50;;
4519;SDS011;2272;49.226;8.108;2023-04-01T15:19:57;0.90;;;0.90;;
4519;SDS011;2272;49.226;8.108;2023-04-01T15:22:39;0.90;;;0.90;;
4519;SDS011;2272;49.226;8.108;2023-04-01T15:25:21;2.60;;;0.70;;
4519;SDS011;2272;49.226;8.108;2023-04-01T15:27:58;0.87;;;0.73;;
4519;SDS011;2272;49.226;8.108;2023-04-01T15:30:32;0.90;;;0.90;;
4519;SDS011;2272;49.226;8.108;2023-04-01T15:35:57;5.83;;;1.10;;
4519;SDS011;2272;49.226;8.108;2023-04-01T15:38:33;0.83;;;0.83;;
4519;SDS011;2272;49.226;8.108;2023-04-01T15:41:07;6.00;;;1.37;;
4519;SDS011;2272;49.226;8.108;2023-04-01T15:43:41;2.50;;;1.07;;
4519;SDS011;2272;49.226;8.108;2023-04-01T15:46:14;1.43;;;0.90;;
4519;SDS011;2272;49.226;8.108;2023-04-01T15:48:57;1.70;;;1.00;;
4519;SDS011;2272;49.226;8.108;2023-04-01T15:51:41;1.00;;;0.90;;
4519;SDS011;2272;49.226;8.108;2023-04-01T15:54:22;1.30;;;1.00;;
4519;SDS011;2272;49.226;8.108;2023-04-01T15:57:11;2.57;;;0.83;;
4519;SDS011;2272;49.226;8.108;2023-04-01T16:00:03;2.73;;;1.30;;
4519;SDS011;2272;49.226;8.108;2023-04-01T16:02:40;4.53;;;1.40;;
4519;SDS011;2272;49.226;8.108;2023-04-01T16:05:21;1.20;;;1.10;;
4519;SDS011;2272;49.226;8.108;2023-04-01T16:08:08;1.27;;;1.17;;
4519;SDS011;2272;49.226;8.108;2023-04-01T16:10:44;0.63;;;0.63;;
4519;SDS011;2272;49.226;8.108;2023-04-01T16:13:23;15.33;;;1.10;;
4519;SDS011;2272;49.226;8.108;2023-04-01T16:15:59;3.50;;;0.80;;
4519;SDS011;2272;49.226;8.108;2023-04-01T16:21:24;6.73;;;2.77;;
4519;SDS011;2272;49.226;8.108;2023-04-01T16:24:03;0.83;;;0.83;;
4519;SDS011;2272;49.226;8.108;2023-04-01T16:26:36;0.60;;;0.60;;
4519;SDS011;2272;49.226;8.108;2023-04-01T16:29:10;0.90;;;0.90;;
4519;SDS011;2272;49.226;8.108;2023-04-01T16:31:45;0.77;;;0.77;;
4519;SDS011;2272;49.226;8.108;2023-04-01T16:34:17;1.00;;;1.00;;
4519;SDS011;2272;49.226;8.108;2023-04-01T16:36:48;1.00;;;1.00;;
4519;SDS011;2272;49.226;8.108;2023-04-01T16:39:29;0.97;;;0.87;;
4519;SDS011;2272;49.226;8.108;2023-04-01T16:42:16;0.80;;;0.80;;
4519;SDS011;2272;49.226;8.108;2023-04-01T16:44:53;2.20;;;1.20;;
4519;SDS011;2272;49.226;8.108;2023-04-01T16:47:27;1.87;;;0.90;;
4519;SDS011;2272;49.226;8.108;2023-04-01T16:49:58;2.00;;;1.70;;
4519;SDS011;2272;49.226;8.108;2023-04-01T16:52:47;3.60;;;1.10;;
4519;SDS011;2272;49.226;8.108;2023-04-01T16:55:24;1.17;;;0.80;;
4519;SDS011;2272;49.226;8.108;2023-04-01T16:58:01;1.27;;;0.77;;
4519;SDS011;2272;49.226;8.108;2023-04-01T17:00:28;6.00;;;2.40;;
4519;SDS011;2272;49.226;8.108;2023-04-01T17:03:04;0.93;;;0.70;;
4519;SDS011;2272;49.226;8.108;2023-04-01T17:05:44;0.90;;;0.80;;
4519;SDS011;2272;49.226;8.108;2023-04-01T17:08:24;2.07;;;0.93;;
4519;SDS011;2272;49.226;8.108;2023-04-01T17:11:02;1.77;;;1.67;;
4519;SDS011;2272;49.226;8.108;2023-04-01T17:13:37;0.83;;;0.77;;
4519;SDS011;2272;49.226;8.108;2023-04-01T17:16:25;1.80;;;0.60;;
4519;SDS011;2272;49.226;8.108;2023-04-01T17:19:05;0.73;;;0.73;;
4519;SDS011;2272;49.226;8.108;2023-04-01T17:21:46;0.90;;;0.90;;
4519;SDS011;2272;49.226;8.108;2023-04-01T17:24:25;4.67;;;3.33;;
4519;SDS011;2272;49.226;8.108;2023-04-01T17:27:06;1.43;;;0.90;;
4519;SDS011;2272;49.226;8.108;2023-04-01T17:29:55;2.83;;;1.27;;